sensor_id;sensor_type;location;lat;lon;timestamp;P1;durP1;ratioP1;P2;durP2;ratioP2
17235;SDS011;8734;59.272;17.780;2023-04-03T00:01:34;7.77;;;1.90;;
17235;SDS011;8734;59.272;17.780;2023-04-03T00:04:04;14.37;;;2.30;;
17235;SDS011;8734;59.272;17.780;2023-04-03T00:06:34;7.53;;;1.57;;
17235;SDS011;8734;59.272;17.780;2023-04-03T00:09:02;4.93;;;1.67;;
17235;SDS011;8734;59.272;17.780;2023-04-03T00:11:31;12.77;;;2.13;;
17235;SDS011;8734;59.272;17.780;2023-04-03T00:13:59;14.67;;;2.27;;
17235;SDS011;8734;59.272;17.780;2023-04-03T00:16:28;8.30;;;2.33;;
17235;SDS011;8734;59.272;17.780;2023-04-03T00:18:56;4.13;;;1.37;;
17235;SDS011;8734;59.272;17.780;2023-04-03T00:21:25;4.27;;;1.50;;
17235;SDS011;8734;59.272;17.780;2023-04-03T00:23:54;4.17;;;1.63;;
17235;SDS011;8734;59.272;17.780;2023-04-03T00:26:23;7.40;;;1.97;;
17235;SDS011;8734;59.272;17.780;2023-04-03T00:28:51;9.43;;;1.63;;
17235;SDS011;8734;59.272;17.780;2023-04-03T00:31:20;12.53;;;1.83;;
17235;SDS011;8734;59.272;17.780;2023-04-03T00:33:49;9.13;;;1.53;;
17235;SDS011;8734;59.272;17.780;2023-04-03T00:36:18;10.87;;;1.13;;
17235;SDS011;8734;59.272;17.780;2023-04-03T00:38:46;3.97;;;1.43;;
17235;SDS011;8734;59.272;17.780;2023-04-03T00:41:16;5.60;;;2.10;;
17235;SDS011;8734;59.272;17.780;2023-04-03T00:43:45;5.37;;;1.83;;
17235;SDS011;8734;59.272;17.780;2023-04-03T00:46:13;8.20;;;2.10;;
17235;SDS011;8734;59.272;17.780;2023-04-03T00:48:42;8.47;;;2.23;;
17235;SDS011;8734;59.272;17.780;2023-04-03T00:51:13;3.80;;;1.50;;
17235;SDS011;8734;59.272;17.780;2023-04-03T00:53:46;5.13;;;1.70;;
17235;SDS011;8734;59.272;17.780;2023-04-03T00:56:19;8.60;;;1.83;;
17235;SDS011;8734;59.272;17.780;2023-04-03T00:58:51;8.07;;;2.43;;
17235;SDS011;8734;59.272;17.780;2023-04-03T01:01:26;11.47;;;1.80;;
17235;SDS011;8734;59.272;17.780;2023-04-03T01:03:56;12.83;;;2.47;;
17235;SDS011;8734;59.272;17.780;2023-04-03T01:06:27;11.03;;;2.13;;
17235;SDS011;8734;59.272;17.780;2023-04-03T01:08:59;24.03;;;2.00;;
17235;SDS011;8734;59.272;17.780;2023-04-03T01:11:29;9.20;;;2.20;;
17235;SDS011;8734;59.272;17.780;2023-04-03T01:13:58;7.13;;;1.47;;
17235;SDS011;8734;59.272;17.780;2023-04-03T01:16:28;7.13;;;1.80;;
17235;SDS011;8734;59.272;17.780;2023-04-03T01:18:58;6.23;;;1.97;;
17235;SDS011;8734;59.272;17.780;2023-04-03T01:24:34;7.33;;;1.70;;
17235;SDS011;8734;59.272;17.780;2023-04-03T01:27:07;7.87;;;1.77;;
17235;SDS011;8734;59.272;17.780;2023-04-03T01:29:38;5.17;;;1.90;;
17235;SDS011;8734;59.272;17.780;2023-04-03T01:32:09;5.73;;;1.67;;
17235;SDS011;8734;59.272;17.780;2023-04-03T01:34:37;5.50;;;1.80;;
17235;SDS011;8734;59.272;17.780;2023-04-03T01:37:06;4.87;;;1.70;;
17235;SDS011;8734;59.272;17.780;2023-04-03T01:39:35;7.50;;;1.83;;
17235;SDS011;8734;59.272;17.780;2023-04-03T01:42:03;15.07;;;2.03;;
17235;SDS011;8734;59.272;17.780;2023-04-03T01:44:32;3.13;;;1.17;;
17235;SDS011;8734;59.272;17.780;2023-04-03T01:47:00;10.30;;;1.50;;
17235;SDS011;8734;59.272;17.780;2023-04-03T01:49:30;7.50;;;1.70;;
17235;SDS011;8734;59.272;17.780;2023-04-03T01:51:59;11.17;;;1.97;;
17235;SDS011;8734;59.272;17.780;2023-04-03T01:54:27;5.37;;;1.30;;
17235;SDS011;8734;59.272;17.780;2023-04-03T01:56:55;5.17;;;1.87;;
17235;SDS011;8734;59.272;17.780;2023-04-03T01:59:24;7.27;;;1.90;;
17235;SDS011;8734;59.272;17.780;2023-04-03T02:01:53;13.93;;;1.33;;
17235;SDS011;8734;59.272;17.780;2023-04-03T02:04:21;8.17;;;1.73;;
17235;SDS011;8734;59.272;17.780;2023-04-03T02:06:51;10.77;;;1.70;;
17235;SDS011;8734;59.272;17.780;2023-04-03T02:09:20;6.50;;;1.60;;
17235;SDS011;8734;59.272;17.780;2023-04-03T02:11:48;10.47;;;1.63;;
17235;SDS011;8734;59.272;17.780;2023-04-03T02:14:17;6.63;;;1.83;;
17235;SDS011;8734;59.272;17.780;2023-04-03T02:16:46;14.50;;;2.33;;
17235;SDS011;8734;59.272;17.780;2023-04-03T02:19:14;4.83;;;1.50;;
17235;SDS011;8734;59.272;17.780;2023-04-03T02:21:43;17.93;;;1.93;;
17235;SDS011;8734;59.272;17.780;2023-04-03T02:24:13;4.57;;;1.63;;
17235;SDS011;8734;59.272;17.780;2023-04-03T02:26:41;12.63;;;1.93;;
17235;SDS011;8734;59.272;17.780;2023-04-03T02:29:09;7.00;;;2.03;;
17235;SDS011;8734;59.272;17.780;2023-04-03T02:31:38;8.67;;;1.50;;
17235;SDS011;8734;59.272;17.780;2023-04-03T02:34:06;7.93;;;1.60;;
17235;SDS011;8734;59.272;17.780;2023-04-03T02:36:34;3.20;;;1.47;;
17235;SDS011;8734;59.272;17.780;2023-04-03T02:39:03;13.20;;;2.07;;
17235;SDS011;8734;59.272;17.780;2023-04-03T02:41:33;5.17;;;1.47;;
17235;SDS011;8734;59.272;17.780;2023-04-03T02:44:02;4.17;;;1.77;;
17235;SDS011;8734;59.272;17.780;2023-04-03T02:46:32;10.57;;;1.50;;
17235;SDS011;8734;59.272;17.780;2023-04-03T02:49:01;11.87;;;1.73;;
17235;SDS011;8734;59.272;17.780;2023-04-03T02:51:30;26.93;;;2.33;;
17235;SDS011;8734;59.272;17.780;2023-04-03T02:53:58;8.13;;;1.90;;
17235;SDS011;8734;59.272;17.780;2023-04-03T02:56:26;9.83;;;1.57;;
17235;SDS011;8734;59.272;17.780;2023-04-03T02:58:56;6.43;;;1.40;;
17235;SDS011;8734;59.272;17.780;2023-04-03T03:01:25;12.70;;;2.10;;
17235;SDS011;8734;59.272;17.780;2023-04-03T03:03:54;8.07;;;1.87;;
17235;SDS011;8734;59.272;17.780;2023-04-03T03:06:23;8.03;;;1.80;;
17235;SDS011;8734;59.272;17.780;2023-04-03T03:08:51;11.30;;;2.07;;
17235;SDS011;8734;59.272;17.780;2023-04-03T03:11:19;8.47;;;1.80;;
17235;SDS011;8734;59.272;17.780;2023-04-03T03:13:48;7.20;;;2.10;;
17235;SDS011;8734;59.272;17.780;2023-04-03T03:16:18;14.77;;;2.23;;
17235;SDS011;8734;59.272;17.780;2023-04-03T03:18:46;14.50;;;2.40;;
17235;SDS011;8734;59.272;17.780;2023-04-03T03:21:15;9.33;;;2.13;;
17235;SDS011;8734;59.272;17.780;2023-04-03T03:23:44;8.30;;;2.07;;
17235;SDS011;8734;59.272;17.780;2023-04-03T03:26:12;13.50;;;1.97;;
17235;SDS011;8734;59.272;17.780;2023-04-03T03:28:41;7.63;;;2.27;;
17235;SDS011;8734;59.272;17.780;2023-04-03T03:31:09;16.30;;;1.83;;
17235;SDS011;8734;59.272;17.780;2023-04-03T03:33:40;5.37;;;2.00;;
17235;SDS011;8734;59.272;17.780;2023-04-03T03:36:08;11.53;;;1.77;;
17235;SDS011;8734;59.272;17.780;2023-04-03T03:38:37;7.53;;;2.13;;
17235;SDS011;8734;59.272;17.780;2023-04-03T03:41:05;17.07;;;2.10;;
17235;SDS011;8734;59.272;17.780;2023-04-03T03:43:34;8.07;;;1.67;;
17235;SDS011;8734;59.272;17.780;2023-04-03T03:46:03;17.57;;;2.00;;
17235;SDS011;8734;59.272;17.780;2023-04-03T03:48:31;11.67;;;2.10;;
17235;SDS011;8734;59.272;17.780;2023-04-03T03:51:01;7.03;;;1.90;;
17235;SDS011;8734;59.272;17.780;2023-04-03T03:53:30;9.47;;;1.97;;
17235;SDS011;8734;59.272;17.780;2023-04-03T03:55:58;8.07;;;2.13;;
17235;SDS011;8734;59.272;17.780;2023-04-03T03:58:27;11.03;;;3.20;;
17235;SDS011;8734;59.272;17.780;2023-04-03T04:00:55;27.80;;;3.77;;
17235;SDS011;8734;59.272;17.780;2023-04-03T04:03:23;14.00;;;2.50;;
17235;SDS011;8734;59.272;17.780;2023-04-03T04:05:52;13.27;;;2.73;;
17235;SDS011;8734;59.272;17.780;2023-04-03T04:08:22;10.87;;;2.23;;
17235;SDS011;8734;59.272;17.780;2023-04-03T04:10:51;11.37;;;2.60;;
17235;SDS011;8734;59.272;17.780;2023-04-03T04:13:20;13.30;;;3.10;;
17235;SDS011;8734;59.272;17.780;2023-04-03T04:15:49;18.13;;;3.17;;
17235;SDS011;8734;59.272;17.780;2023-04-03T04:18:17;6.13;;;2.70;;
17235;SDS011;8734;59.272;17.780;2023-04-03T04:20:46;23.93;;;2.90;;
17235;SDS011;8734;59.272;17.780;2023-04-03T04:23:15;5.03;;;1.97;;
17235;SDS011;8734;59.272;17.780;2023-04-03T04:25:45;14.73;;;4.17;;
17235;SDS011;8734;59.272;17.780;2023-04-03T04:28:14;8.40;;;3.27;;
17235;SDS011;8734;59.272;17.780;2023-04-03T04:30:43;13.43;;;2.77;;
17235;SDS011;8734;59.272;17.780;2023-04-03T04:33:12;8.00;;;2.60;;
17235;SDS011;8734;59.272;17.780;2023-04-03T04:35:41;8.67;;;2.23;;
17235;SDS011;8734;59.272;17.780;2023-04-03T04:38:10;14.20;;;2.57;;
17235;SDS011;8734;59.272;17.780;2023-04-03T04:40:38;14.17;;;2.00;;
17235;SDS011;8734;59.272;17.780;2023-04-03T04:43:09;15.13;;;1.93;;
17235;SDS011;8734;59.272;17.780;2023-04-03T04:45:41;10.90;;;3.30;;
17235;SDS011;8734;59.272;17.780;2023-04-03T04:48:09;10.23;;;2.47;;
17235;SDS011;8734;59.272;17.780;2023-04-03T04:50:37;13.10;;;2.10;;
17235;SDS011;8734;59.272;17.780;2023-04-03T04:53:06;4.40;;;1.93;;
17235;SDS011;8734;59.272;17.780;2023-04-03T04:55:34;11.43;;;2.63;;
17235;SDS011;8734;59.272;17.780;2023-04-03T04:58:04;6.43;;;2.50;;
17235;SDS011;8734;59.272;17.780;2023-04-03T05:00:33;12.07;;;2.80;;
17235;SDS011;8734;59.272;17.780;2023-04-03T05:03:02;12.00;;;2.20;;
17235;SDS011;8734;59.272;17.780;2023-04-03T05:05:31;10.00;;;3.37;;
17235;SDS011;8734;59.272;17.780;2023-04-03T05:08:00;9.80;;;2.70;;
17235;SDS011;8734;59.272;17.780;2023-04-03T05:10:29;7.60;;;2.60;;
17235;SDS011;8734;59.272;17.780;2023-04-03T05:12:58;13.13;;;2.60;;
17235;SDS011;8734;59.272;17.780;2023-04-03T05:15:26;13.30;;;3.13;;
17235;SDS011;8734;59.272;17.780;2023-04-03T05:17:56;6.37;;;1.97;;
17235;SDS011;8734;59.272;17.780;2023-04-03T05:20:24;7.83;;;2.43;;
17235;SDS011;8734;59.272;17.780;2023-04-03T05:22:53;10.07;;;2.83;;
17235;SDS011;8734;59.272;17.780;2023-04-03T05:25:21;6.27;;;2.10;;
17235;SDS011;8734;59.272;17.780;2023-04-03T05:27:52;19.73;;;2.53;;
17235;SDS011;8734;59.272;17.780;2023-04-03T05:30:20;11.00;;;2.73;;
17235;SDS011;8734;59.272;17.780;2023-04-03T05:32:49;15.47;;;2.83;;
17235;SDS011;8734;59.272;17.780;2023-04-03T05:35:18;8.53;;;1.90;;
17235;SDS011;8734;59.272;17.780;2023-04-03T05:37:47;15.13;;;2.60;;
17235;SDS011;8734;59.272;17.780;2023-04-03T05:40:16;14.17;;;2.63;;
17235;SDS011;8734;59.272;17.780;2023-04-03T05:42:44;10.43;;;2.27;;
17235;SDS011;8734;59.272;17.780;2023-04-03T05:45:13;8.37;;;1.97;;
17235;SDS011;8734;59.272;17.780;2023-04-03T05:47:41;13.20;;;2.07;;
17235;SDS011;8734;59.272;17.780;2023-04-03T05:50:09;13.73;;;2.83;;
17235;SDS011;8734;59.272;17.780;2023-04-03T05:52:40;7.80;;;1.87;;
17235;SDS011;8734;59.272;17.780;2023-04-03T05:55:13;11.47;;;2.13;;
17235;SDS011;8734;59.272;17.780;2023-04-03T05:57:42;14.80;;;2.47;;
17235;SDS011;8734;59.272;17.780;2023-04-03T06:00:12;5.83;;;1.50;;
17235;SDS011;8734;59.272;17.780;2023-04-03T06:02:48;5.50;;;1.60;;
17235;SDS011;8734;59.272;17.780;2023-04-03T06:05:17;10.83;;;2.33;;
17235;SDS011;8734;59.272;17.780;2023-04-03T06:07:46;5.77;;;2.00;;
17235;SDS011;8734;59.272;17.780;2023-04-03T06:10:15;18.20;;;2.73;;
17235;SDS011;8734;59.272;17.780;2023-04-03T06:12:44;6.40;;;2.17;;
17235;SDS011;8734;59.272;17.780;2023-04-03T06:15:13;15.70;;;2.77;;
17235;SDS011;8734;59.272;17.780;2023-04-03T06:17:43;7.77;;;1.83;;
17235;SDS011;8734;59.272;17.780;2023-04-03T06:20:11;21.83;;;2.37;;
17235;SDS011;8734;59.272;17.780;2023-04-03T06:22:40;11.43;;;2.20;;
17235;SDS011;8734;59.272;17.780;2023-04-03T06:25:10;7.30;;;1.83;;
17235;SDS011;8734;59.272;17.780;2023-04-03T06:27:38;11.07;;;2.30;;
17235;SDS011;8734;59.272;17.780;2023-04-03T06:30:07;6.43;;;1.73;;
17235;SDS011;8734;59.272;17.780;2023-04-03T06:32:37;7.33;;;2.30;;
17235;SDS011;8734;59.272;17.780;2023-04-03T06:35:07;21.87;;;2.97;;
17235;SDS011;8734;59.272;17.780;2023-04-03T06:37:36;12.77;;;2.40;;
17235;SDS011;8734;59.272;17.780;2023-04-03T06:40:05;13.63;;;2.30;;
17235;SDS011;8734;59.272;17.780;2023-04-03T06:42:37;10.30;;;3.03;;
17235;SDS011;8734;59.272;17.780;2023-04-03T06:45:06;16.03;;;2.47;;
17235;SDS011;8734;59.272;17.780;2023-04-03T06:47:36;8.97;;;2.13;;
17235;SDS011;8734;59.272;17.780;2023-04-03T06:50:05;9.80;;;2.90;;
17235;SDS011;8734;59.272;17.780;2023-04-03T06:52:35;10.73;;;1.83;;
17235;SDS011;8734;59.272;17.780;2023-04-03T06:55:04;17.80;;;2.73;;
17235;SDS011;8734;59.272;17.780;2023-04-03T06:57:32;17.67;;;2.67;;
17235;SDS011;8734;59.272;17.780;2023-04-03T07:00:02;11.33;;;2.30;;
17235;SDS011;8734;59.272;17.780;2023-04-03T07:02:33;9.07;;;2.23;;
17235;SDS011;8734;59.272;17.780;2023-04-03T07:05:02;12.03;;;2.47;;
17235;SDS011;8734;59.272;17.780;2023-04-03T07:07:30;10.87;;;1.60;;
17235;SDS011;8734;59.272;17.780;2023-04-03T07:10:00;12.50;;;2.23;;
17235;SDS011;8734;59.272;17.780;2023-04-03T07:12:28;7.60;;;1.93;;
17235;SDS011;8734;59.272;17.780;2023-04-03T07:14:56;15.40;;;2.13;;
17235;SDS011;8734;59.272;17.780;2023-04-03T07:17:27;8.60;;;2.00;;
17235;SDS011;8734;59.272;17.780;2023-04-03T07:19:56;6.77;;;2.00;;
17235;SDS011;8734;59.272;17.780;2023-04-03T07:22:24;3.63;;;1.83;;
17235;SDS011;8734;59.272;17.780;2023-04-03T07:24:53;30.03;;;2.43;;
17235;SDS011;8734;59.272;17.780;2023-04-03T07:27:21;12.57;;;2.20;;
17235;SDS011;8734;59.272;17.780;2023-04-03T07:29:49;8.03;;;1.90;;
17235;SDS011;8734;59.272;17.780;2023-04-03T07:32:20;21.60;;;1.70;;
17235;SDS011;8734;59.272;17.780;2023-04-03T07:34:49;8.83;;;2.00;;
17235;SDS011;8734;59.272;17.780;2023-04-03T07:37:17;9.70;;;2.30;;
17235;SDS011;8734;59.272;17.780;2023-04-03T07:39:46;15.97;;;2.17;;
17235;SDS011;8734;59.272;17.780;2023-04-03T07:42:15;12.13;;;2.10;;
17235;SDS011;8734;59.272;17.780;2023-04-03T07:44:44;12.23;;;1.90;;
17235;SDS011;8734;59.272;17.780;2023-04-03T07:47:13;5.17;;;1.60;;
17235;SDS011;8734;59.272;17.780;2023-04-03T07:49:43;8.57;;;1.67;;
17235;SDS011;8734;59.272;17.780;2023-04-03T07:52:12;13.50;;;2.27;;
17235;SDS011;8734;59.272;17.780;2023-04-03T07:54:42;11.40;;;1.80;;
17235;SDS011;8734;59.272;17.780;2023-04-03T07:57:10;4.60;;;2.23;;
17235;SDS011;8734;59.272;17.780;2023-04-03T07:59:39;6.50;;;1.27;;
17235;SDS011;8734;59.272;17.780;2023-04-03T08:02:09;7.53;;;1.30;;
17235;SDS011;8734;59.272;17.780;2023-04-03T08:04:38;8.13;;;1.60;;
17235;SDS011;8734;59.272;17.780;2023-04-03T08:07:06;5.23;;;1.57;;
17235;SDS011;8734;59.272;17.780;2023-04-03T08:09:36;11.97;;;1.67;;
17235;SDS011;8734;59.272;17.780;2023-04-03T08:12:04;7.63;;;1.80;;
17235;SDS011;8734;59.272;17.780;2023-04-03T08:14:33;23.83;;;2.37;;
17235;SDS011;8734;59.272;17.780;2023-04-03T08:17:02;5.30;;;1.30;;
17235;SDS011;8734;59.272;17.780;2023-04-03T08:19:31;9.87;;;1.67;;
17235;SDS011;8734;59.272;17.780;2023-04-03T08:21:59;12.77;;;1.60;;
17235;SDS011;8734;59.272;17.780;2023-04-03T08:24:29;16.57;;;1.67;;
17235;SDS011;8734;59.272;17.780;2023-04-03T08:26:59;8.10;;;2.03;;
17235;SDS011;8734;59.272;17.780;2023-04-03T08:29:28;6.37;;;1.20;;
17235;SDS011;8734;59.272;17.780;2023-04-03T08:31:59;12.60;;;1.90;;
17235;SDS011;8734;59.272;17.780;2023-04-03T08:34:27;8.10;;;1.20;;
17235;SDS011;8734;59.272;17.780;2023-04-03T08:36:55;7.93;;;1.40;;
17235;SDS011;8734;59.272;17.780;2023-04-03T08:39:24;20.57;;;1.73;;
17235;SDS011;8734;59.272;17.780;2023-04-03T08:41:53;6.43;;;1.30;;
17235;SDS011;8734;59.272;17.780;2023-04-03T08:44:29;6.43;;;1.27;;
17235;SDS011;8734;59.272;17.780;2023-04-03T08:47:10;10.30;;;1.40;;
17235;SDS011;8734;59.272;17.780;2023-04-03T08:49:45;7.87;;;1.40;;
17235;SDS011;8734;59.272;17.780;2023-04-03T08:52:19;9.50;;;1.60;;
17235;SDS011;8734;59.272;17.780;2023-04-03T08:54:53;7.30;;;1.07;;
17235;SDS011;8734;59.272;17.780;2023-04-03T08:57:26;23.03;;;2.10;;
17235;SDS011;8734;59.272;17.780;2023-04-03T09:00:01;10.20;;;1.40;;
17235;SDS011;8734;59.272;17.780;2023-04-03T09:02:33;7.17;;;1.57;;
17235;SDS011;8734;59.272;17.780;2023-04-03T09:05:10;9.23;;;1.40;;
17235;SDS011;8734;59.272;17.780;2023-04-03T09:07:42;7.80;;;1.10;;
17235;SDS011;8734;59.272;17.780;2023-04-03T09:10:15;9.30;;;1.20;;
17235;SDS011;8734;59.272;17.780;2023-04-03T09:12:49;3.80;;;1.10;;
17235;SDS011;8734;59.272;17.780;2023-04-03T09:15:24;5.33;;;1.30;;
17235;SDS011;8734;59.272;17.780;2023-04-03T09:18:06;12.53;;;1.60;;
17235;SDS011;8734;59.272;17.780;2023-04-03T09:20:43;7.83;;;1.87;;
17235;SDS011;8734;59.272;17.780;2023-04-03T09:23:19;8.20;;;1.60;;
17235;SDS011;8734;59.272;17.780;2023-04-03T09:25:52;7.40;;;1.63;;
17235;SDS011;8734;59.272;17.780;2023-04-03T09:28:26;7.13;;;1.40;;
17235;SDS011;8734;59.272;17.780;2023-04-03T09:31:14;10.77;;;1.60;;
17235;SDS011;8734;59.272;17.780;2023-04-03T09:33:49;15.33;;;1.83;;
17235;SDS011;8734;59.272;17.780;2023-04-03T09:39:10;5.67;;;1.27;;
17235;SDS011;8734;59.272;17.780;2023-04-03T09:41:41;9.80;;;1.97;;
17235;SDS011;8734;59.272;17.780;2023-04-03T09:44:20;4.73;;;1.30;;
17235;SDS011;8734;59.272;17.780;2023-04-03T09:46:51;6.67;;;1.33;;
17235;SDS011;8734;59.272;17.780;2023-04-03T09:49:20;5.87;;;1.43;;
17235;SDS011;8734;59.272;17.780;2023-04-03T09:51:49;5.10;;;1.30;;
17235;SDS011;8734;59.272;17.780;2023-04-03T09:54:25;7.43;;;1.50;;
17235;SDS011;8734;59.272;17.780;2023-04-03T09:57:00;12.10;;;2.30;;
17235;SDS011;8734;59.272;17.780;2023-04-03T09:59:31;5.10;;;1.80;;
17235;SDS011;8734;59.272;17.780;2023-04-03T10:02:03;8.40;;;1.47;;
17235;SDS011;8734;59.272;17.780;2023-04-03T10:04:45;3.53;;;1.17;;
17235;SDS011;8734;59.272;17.780;2023-04-03T10:07:28;4.33;;;1.63;;
17235;SDS011;8734;59.272;17.780;2023-04-03T10:09:59;5.87;;;1.60;;
17235;SDS011;8734;59.272;17.780;2023-04-03T10:12:29;2.80;;;1.23;;
17235;SDS011;8734;59.272;17.780;2023-04-03T10:14:59;6.57;;;1.30;;
17235;SDS011;8734;59.272;17.780;2023-04-03T10:17:32;4.00;;;1.27;;
17235;SDS011;8734;59.272;17.780;2023-04-03T10:20:09;8.50;;;1.60;;
17235;SDS011;8734;59.272;17.780;2023-04-03T10:23:02;14.27;;;1.60;;
17235;SDS011;8734;59.272;17.780;2023-04-03T10:25:43;6.40;;;1.30;;
17235;SDS011;8734;59.272;17.780;2023-04-03T10:28:23;10.43;;;1.30;;
17235;SDS011;8734;59.272;17.780;2023-04-03T10:30:56;13.00;;;2.33;;
17235;SDS011;8734;59.272;17.780;2023-04-03T10:33:37;4.20;;;1.20;;
17235;SDS011;8734;59.272;17.780;2023-04-03T10:36:16;14.70;;;1.97;;
17235;SDS011;8734;59.272;17.780;2023-04-03T10:38:51;9.20;;;1.53;;
17235;SDS011;8734;59.272;17.780;2023-04-03T10:41:31;5.10;;;1.33;;
17235;SDS011;8734;59.272;17.780;2023-04-03T10:44:15;4.83;;;1.83;;
17235;SDS011;8734;59.272;17.780;2023-04-03T10:46:49;3.63;;;1.33;;
17235;SDS011;8734;59.272;17.780;2023-04-03T10:49:25;11.27;;;1.50;;
17235;SDS011;8734;59.272;17.780;2023-04-03T10:52:06;3.83;;;1.43;;
17235;SDS011;8734;59.272;17.780;2023-04-03T10:54:42;4.93;;;1.47;;
17235;SDS011;8734;59.272;17.780;2023-04-03T10:57:21;11.03;;;1.43;;
17235;SDS011;8734;59.272;17.780;2023-04-03T10:59:53;7.37;;;1.93;;
17235;SDS011;8734;59.272;17.780;2023-04-03T11:02:27;13.20;;;1.50;;
17235;SDS011;8734;59.272;17.780;2023-04-03T11:05:01;10.87;;;1.93;;
17235;SDS011;8734;59.272;17.780;2023-04-03T11:07:36;5.43;;;1.10;;
17235;SDS011;8734;59.272;17.780;2023-04-03T11:10:09;10.13;;;1.30;;
17235;SDS011;8734;59.272;17.780;2023-04-03T11:12:44;2.47;;;1.20;;
17235;SDS011;8734;59.272;17.780;2023-04-03T11:15:16;8.27;;;1.40;;
17235;SDS011;8734;59.272;17.780;2023-04-03T11:17:48;3.43;;;1.30;;
17235;SDS011;8734;59.272;17.780;2023-04-03T11:20:23;4.73;;;1.10;;
17235;SDS011;8734;59.272;17.780;2023-04-03T11:23:00;5.23;;;1.20;;
17235;SDS011;8734;59.272;17.780;2023-04-03T11:25:31;12.57;;;1.40;;
17235;SDS011;8734;59.272;17.780;2023-04-03T11:28:03;3.57;;;1.40;;
17235;SDS011;8734;59.272;17.780;2023-04-03T11:30:45;4.03;;;1.20;;
17235;SDS011;8734;59.272;17.780;2023-04-03T11:33:24;3.27;;;1.07;;
17235;SDS011;8734;59.272;17.780;2023-04-03T11:36:02;8.60;;;2.43;;
17235;SDS011;8734;59.272;17.780;2023-04-03T11:38:52;3.27;;;1.17;;
17235;SDS011;8734;59.272;17.780;2023-04-03T11:41:25;5.30;;;1.20;;
17235;SDS011;8734;59.272;17.780;2023-04-03T11:43:56;6.33;;;1.10;;
17235;SDS011;8734;59.272;17.780;2023-04-03T11:55:42;9.07;;;1.40;;
17235;SDS011;8734;59.272;17.780;2023-04-03T11:58:22;3.50;;;1.10;;
17235;SDS011;8734;59.272;17.780;2023-04-03T12:00:55;3.43;;;0.90;;
17235;SDS011;8734;59.272;17.780;2023-04-03T12:09:52;4.67;;;1.20;;
17235;SDS011;8734;59.272;17.780;2023-04-03T12:12:29;12.37;;;1.53;;
17235;SDS011;8734;59.272;17.780;2023-04-03T12:21:23;8.67;;;1.40;;
17235;SDS011;8734;59.272;17.780;2023-04-03T12:24:25;5.67;;;0.60;;
17235;SDS011;8734;59.272;17.780;2023-04-03T12:27:03;6.30;;;1.13;;
17235;SDS011;8734;59.272;17.780;2023-04-03T12:29:42;13.87;;;1.73;;
17235;SDS011;8734;59.272;17.780;2023-04-03T12:32:22;3.23;;;1.00;;
17235;SDS011;8734;59.272;17.780;2023-04-03T12:35:02;9.10;;;2.30;;
17235;SDS011;8734;59.272;17.780;2023-04-03T12:37:43;7.30;;;1.10;;
17235;SDS011;8734;59.272;17.780;2023-04-03T12:40:42;11.50;;;1.43;;
17235;SDS011;8734;59.272;17.780;2023-04-03T12:43:29;4.17;;;1.40;;
17235;SDS011;8734;59.272;17.780;2023-04-03T12:46:11;4.23;;;0.87;;
17235;SDS011;8734;59.272;17.780;2023-04-03T12:48:47;6.40;;;1.40;;
17235;SDS011;8734;59.272;17.780;2023-04-03T12:51:18;5.83;;;1.30;;
17235;SDS011;8734;59.272;17.780;2023-04-03T12:53:50;7.97;;;0.90;;
17235;SDS011;8734;59.272;17.780;2023-04-03T12:56:23;3.00;;;1.23;;
17235;SDS011;8734;59.272;17.780;2023-04-03T12:59:13;5.13;;;1.00;;
17235;SDS011;8734;59.272;17.780;2023-04-03T13:01:44;7.00;;;1.03;;
17235;SDS011;8734;59.272;17.780;2023-04-03T13:04:20;4.03;;;1.00;;
17235;SDS011;8734;59.272;17.780;2023-04-03T13:06:49;2.00;;;1.00;;
17235;SDS011;8734;59.272;17.780;2023-04-03T13:09:19;2.80;;;0.87;;
17235;SDS011;8734;59.272;17.780;2023-04-03T13:11:49;2.23;;;0.90;;
17235;SDS011;8734;59.272;17.780;2023-04-03T13:14:22;4.87;;;1.20;;
17235;SDS011;8734;59.272;17.780;2023-04-03T13:16:52;4.80;;;1.13;;
17235;SDS011;8734;59.272;17.780;2023-04-03T13:19:22;8.20;;;1.10;;
17235;SDS011;8734;59.272;17.780;2023-04-03T13:21:56;4.40;;;1.17;;
17235;SDS011;8734;59.272;17.780;2023-04-03T13:24:30;2.50;;;0.80;;
17235;SDS011;8734;59.272;17.780;2023-04-03T13:27:02;8.17;;;1.00;;
17235;SDS011;8734;59.272;17.780;2023-04-03T13:29:33;2.53;;;0.93;;
17235;SDS011;8734;59.272;17.780;2023-04-03T13:32:04;6.43;;;0.90;;
17235;SDS011;8734;59.272;17.780;2023-04-03T13:34:36;5.97;;;1.00;;
17235;SDS011;8734;59.272;17.780;2023-04-03T13:37:06;6.07;;;0.83;;
17235;SDS011;8734;59.272;17.780;2023-04-03T13:39:45;3.83;;;1.10;;
17235;SDS011;8734;59.272;17.780;2023-04-03T13:42:26;14.80;;;1.37;;
17235;SDS011;8734;59.272;17.780;2023-04-03T13:45:11;3.17;;;0.90;;
17235;SDS011;8734;59.272;17.780;2023-04-03T13:47:47;7.83;;;1.07;;
17235;SDS011;8734;59.272;17.780;2023-04-03T13:50:18;12.17;;;1.13;;
17235;SDS011;8734;59.272;17.780;2023-04-03T13:52:52;10.57;;;0.80;;
17235;SDS011;8734;59.272;17.780;2023-04-03T13:55:23;6.73;;;1.27;;
17235;SDS011;8734;59.272;17.780;2023-04-03T13:57:55;9.97;;;0.80;;
17235;SDS011;8734;59.272;17.780;2023-04-03T14:00:32;4.60;;;0.70;;
17235;SDS011;8734;59.272;17.780;2023-04-03T14:03:11;9.27;;;0.97;;
17235;SDS011;8734;59.272;17.780;2023-04-03T14:05:41;6.57;;;1.03;;
17235;SDS011;8734;59.272;17.780;2023-04-03T14:08:09;5.37;;;0.80;;
17235;SDS011;8734;59.272;17.780;2023-04-03T14:10:37;8.87;;;1.13;;
17235;SDS011;8734;59.272;17.780;2023-04-03T14:13:09;7.10;;;1.40;;
17235;SDS011;8734;59.272;17.780;2023-04-03T14:15:40;3.07;;;0.97;;
17235;SDS011;8734;59.272;17.780;2023-04-03T14:18:10;2.20;;;0.87;;
17235;SDS011;8734;59.272;17.780;2023-04-03T14:20:39;17.77;;;1.40;;
17235;SDS011;8734;59.272;17.780;2023-04-03T14:23:08;5.80;;;0.83;;
17235;SDS011;8734;59.272;17.780;2023-04-03T14:25:39;6.37;;;0.93;;
17235;SDS011;8734;59.272;17.780;2023-04-03T14:28:12;10.93;;;1.10;;
17235;SDS011;8734;59.272;17.780;2023-04-03T14:30:45;2.27;;;1.00;;
17235;SDS011;8734;59.272;17.780;2023-04-03T14:33:15;6.00;;;1.00;;
17235;SDS011;8734;59.272;17.780;2023-04-03T14:35:46;10.20;;;1.97;;
17235;SDS011;8734;59.272;17.780;2023-04-03T14:38:20;18.33;;;1.27;;
17235;SDS011;8734;59.272;17.780;2023-04-03T14:40:51;3.53;;;1.10;;
17235;SDS011;8734;59.272;17.780;2023-04-03T14:43:24;4.97;;;0.83;;
17235;SDS011;8734;59.272;17.780;2023-04-03T14:45:54;7.10;;;0.73;;
17235;SDS011;8734;59.272;17.780;2023-04-03T14:48:24;3.50;;;0.80;;
17235;SDS011;8734;59.272;17.780;2023-04-03T14:50:55;10.40;;;1.40;;
17235;SDS011;8734;59.272;17.780;2023-04-03T14:53:31;7.23;;;1.10;;
17235;SDS011;8734;59.272;17.780;2023-04-03T14:56:08;4.03;;;0.70;;
17235;SDS011;8734;59.272;17.780;2023-04-03T14:58:39;5.30;;;1.37;;
17235;SDS011;8734;59.272;17.780;2023-04-03T15:01:10;9.10;;;1.00;;
17235;SDS011;8734;59.272;17.780;2023-04-03T15:03:40;8.23;;;1.10;;
17235;SDS011;8734;59.272;17.780;2023-04-03T15:06:09;1.23;;;0.63;;
17235;SDS011;8734;59.272;17.780;2023-04-03T15:08:39;4.70;;;1.20;;
17235;SDS011;8734;59.272;17.780;2023-04-03T15:11:08;2.73;;;1.00;;
17235;SDS011;8734;59.272;17.780;2023-04-03T15:13:38;2.60;;;0.80;;
17235;SDS011;8734;59.272;17.780;2023-04-03T15:16:12;13.30;;;1.43;;
17235;SDS011;8734;59.272;17.780;2023-04-03T15:18:44;1.03;;;0.60;;
17235;SDS011;8734;59.272;17.780;2023-04-03T15:21:13;2.07;;;0.70;;
17235;SDS011;8734;59.272;17.780;2023-04-03T15:23:42;2.70;;;1.00;;
17235;SDS011;8734;59.272;17.780;2023-04-03T15:26:10;8.03;;;1.10;;
17235;SDS011;8734;59.272;17.780;2023-04-03T15:28:39;22.33;;;1.30;;
17235;SDS011;8734;59.272;17.780;2023-04-03T15:31:12;3.00;;;0.67;;
17235;SDS011;8734;59.272;17.780;2023-04-03T15:33:40;3.67;;;0.90;;
17235;SDS011;8734;59.272;17.780;2023-04-03T15:36:09;3.33;;;0.63;;